sensor_id;sensor_type;location;lat;lon;timestamp;P1;durP1;ratioP1;P2;durP2;ratioP2
23280;SDS011;11809;56.390;-3.266;2022-07-12T00:01:56;2.08;;;1.63;;
23280;SDS011;11809;56.390;-3.266;2022-07-12T00:04:23;1.52;;;1.42;;
23280;SDS011;11809;56.390;-3.266;2022-07-12T00:06:51;1.60;;;1.50;;
23280;SDS011;11809;56.390;-3.266;2022-07-12T00:09:18;1.70;;;1.60;;
23280;SDS011;11809;56.390;-3.266;2022-07-12T00:11:45;1.63;;;1.52;;
23280;SDS011;11809;56.390;-3.266;2022-07-12T00:14:12;1.70;;;1.60;;
23280;SDS011;11809;56.390;-3.266;2022-07-12T00:16:39;1.80;;;1.60;;
23280;SDS011;11809;56.390;-3.266;2022-07-12T00:19:06;2.53;;;1.60;;
23280;SDS011;11809;56.390;-3.266;2022-07-12T00:21:33;1.55;;;1.45;;
23280;SDS011;11809;56.390;-3.266;2022-07-12T00:24:00;1.58;;;1.48;;
23280;SDS011;11809;56.390;-3.266;2022-07-12T00:26:27;1.50;;;1.40;;
23280;SDS011;11809;56.390;-3.266;2022-07-12T00:28:54;3.70;;;1.45;;
23280;SDS011;11809;56.390;-3.266;2022-07-12T00:31:21;4.03;;;1.73;;
23280;SDS011;11809;56.390;-3.266;2022-07-12T00:33:48;2.17;;;1.73;;
23280;SDS011;11809;56.390;-3.266;2022-07-12T00:36:15;2.15;;;1.70;;
23280;SDS011;11809;56.390;-3.266;2022-07-12T00:38:42;2.05;;;1.70;;
23280;SDS011;11809;56.390;-3.266;2022-07-12T00:41:09;1.80;;;1.70;;
23280;SDS011;11809;56.390;-3.266;2022-07-12T00:43:36;2.85;;;1.50;;
23280;SDS011;11809;56.390;-3.266;2022-07-12T00:46:03;2.42;;;1.70;;
23280;SDS011;11809;56.390;-3.266;2022-07-12T00:48:31;1.58;;;1.48;;
23280;SDS011;11809;56.390;-3.266;2022-07-12T00:51:00;1.70;;;1.60;;
23280;SDS011;11809;56.390;-3.266;2022-07-12T00:53:27;2.85;;;1.70;;
23280;SDS011;11809;56.390;-3.266;2022-07-12T00:55:57;1.90;;;1.80;;
23280;SDS011;11809;56.390;-3.266;2022-07-12T00:58:25;2.17;;;1.55;;
23280;SDS011;11809;56.390;-3.266;2022-07-12T01:00:55;1.80;;;1.70;;
23280;SDS011;11809;56.390;-3.266;2022-07-12T01:03:23;1.85;;;1.67;;
23280;SDS011;11809;56.390;-3.266;2022-07-12T01:05:51;1.60;;;1.50;;
23280;SDS011;11809;56.390;-3.266;2022-07-12T01:08:18;1.75;;;1.65;;
23280;SDS011;11809;56.390;-3.266;2022-07-12T01:10:46;1.60;;;1.50;;
23280;SDS011;11809;56.390;-3.266;2022-07-12T01:13:16;4.45;;;2.03;;
23280;SDS011;11809;56.390;-3.266;2022-07-12T01:15:43;2.10;;;1.88;;
23280;SDS011;11809;56.390;-3.266;2022-07-12T01:18:11;2.20;;;1.70;;
23280;SDS011;11809;56.390;-3.266;2022-07-12T01:20:39;2.53;;;2.10;;
23280;SDS011;11809;56.390;-3.266;2022-07-12T01:23:07;1.88;;;1.75;;
23280;SDS011;11809;56.390;-3.266;2022-07-12T01:25:35;1.52;;;1.42;;
23280;SDS011;11809;56.390;-3.266;2022-07-12T01:28:03;1.83;;;1.70;;
23280;SDS011;11809;56.390;-3.266;2022-07-12T01:30:30;1.65;;;1.52;;
23280;SDS011;11809;56.390;-3.266;2022-07-12T01:32:58;1.70;;;1.60;;
23280;SDS011;11809;56.390;-3.266;2022-07-12T01:35:26;1.50;;;1.40;;
23280;SDS011;11809;56.390;-3.266;2022-07-12T01:37:54;2.38;;;1.30;;
23280;SDS011;11809;56.390;-3.266;2022-07-12T01:40:22;2.03;;;1.30;;
23280;SDS011;11809;56.390;-3.266;2022-07-12T01:42:49;1.65;;;1.55;;
23280;SDS011;11809;56.390;-3.266;2022-07-12T01:45:18;1.67;;;1.58;;
23280;SDS011;11809;56.390;-3.266;2022-07-12T01:47:46;2.42;;;1.50;;
23280;SDS011;11809;56.390;-3.266;2022-07-12T01:50:13;1.58;;;1.48;;
23280;SDS011;11809;56.390;-3.266;2022-07-12T01:52:40;1.50;;;1.40;;
23280;SDS011;11809;56.390;-3.266;2022-07-12T01:55:08;1.55;;;1.45;;
23280;SDS011;11809;56.390;-3.266;2022-07-12T01:57:43;1.60;;;1.50;;
23280;SDS011;11809;56.390;-3.266;2022-07-12T02:00:11;1.67;;;1.30;;
23280;SDS011;11809;56.390;-3.266;2022-07-12T02:02:39;1.50;;;1.40;;
23280;SDS011;11809;56.390;-3.266;2022-07-12T02:05:07;1.95;;;1.33;;
23280;SDS011;11809;56.390;-3.266;2022-07-12T02:07:34;2.08;;;1.50;;
23280;SDS011;11809;56.390;-3.266;2022-07-12T02:10:04;4.60;;;1.48;;
23280;SDS011;11809;56.390;-3.266;2022-07-12T02:12:32;1.40;;;1.30;;
23280;SDS011;11809;56.390;-3.266;2022-07-12T02:14:59;1.60;;;1.50;;
23280;SDS011;11809;56.390;-3.266;2022-07-12T02:17:26;1.77;;;1.40;;
23280;SDS011;11809;56.390;-3.266;2022-07-12T02:19:53;1.55;;;1.35;;
23280;SDS011;11809;56.390;-3.266;2022-07-12T02:22:20;1.55;;;1.45;;
23280;SDS011;11809;56.390;-3.266;2022-07-12T02:24:47;3.10;;;1.50;;
23280;SDS011;11809;56.390;-3.266;2022-07-12T02:27:14;1.45;;;1.20;;
23280;SDS011;11809;56.390;-3.266;2022-07-12T02:29:41;3.00;;;1.45;;
23280;SDS011;11809;56.390;-3.266;2022-07-12T02:32:08;1.60;;;1.50;;
23280;SDS011;11809;56.390;-3.266;2022-07-12T02:34:35;1.58;;;1.10;;
23280;SDS011;11809;56.390;-3.266;2022-07-12T02:37:02;1.45;;;1.35;;
23280;SDS011;11809;56.390;-3.266;2022-07-12T02:39:29;1.40;;;1.30;;
23280;SDS011;11809;56.390;-3.266;2022-07-12T02:41:56;1.60;;;1.50;;
23280;SDS011;11809;56.390;-3.266;2022-07-12T02:44:23;1.38;;;1.27;;
23280;SDS011;11809;56.390;-3.266;2022-07-12T02:46:50;1.42;;;1.33;;
23280;SDS011;11809;56.390;-3.266;2022-07-12T02:49:17;1.40;;;1.30;;
23280;SDS011;11809;56.390;-3.266;2022-07-12T02:51:44;1.45;;;1.35;;
23280;SDS011;11809;56.390;-3.266;2022-07-12T02:54:10;1.35;;;1.30;;
23280;SDS011;11809;56.390;-3.266;2022-07-12T02:56:37;1.63;;;1.45;;
23280;SDS011;11809;56.390;-3.266;2022-07-12T02:59:04;1.40;;;1.30;;
23280;SDS011;11809;56.390;-3.266;2022-07-12T03:01:31;1.40;;;1.30;;
23280;SDS011;11809;56.390;-3.266;2022-07-12T03:03:58;1.60;;;1.50;;
23280;SDS011;11809;56.390;-3.266;2022-07-12T03:06:25;1.50;;;1.40;;
23280;SDS011;11809;56.390;-3.266;2022-07-12T03:08:52;1.60;;;1.50;;
23280;SDS011;11809;56.390;-3.266;2022-07-12T03:11:19;2.10;;;1.58;;
23280;SDS011;11809;56.390;-3.266;2022-07-12T03:13:46;3.10;;;1.50;;
23280;SDS011;11809;56.390;-3.266;2022-07-12T03:16:12;1.90;;;1.60;;
23280;SDS011;11809;56.390;-3.266;2022-07-12T03:18:40;1.80;;;1.70;;
23280;SDS011;11809;56.390;-3.266;2022-07-12T03:21:08;2.65;;;1.50;;
23280;SDS011;11809;56.390;-3.266;2022-07-12T03:23:35;2.05;;;1.45;;
23280;SDS011;11809;56.390;-3.266;2022-07-12T03:26:02;1.60;;;1.50;;
23280;SDS011;11809;56.390;-3.266;2022-07-12T03:28:29;1.48;;;1.38;;
23280;SDS011;11809;56.390;-3.266;2022-07-12T03:30:56;2.85;;;1.50;;
23280;SDS011;11809;56.390;-3.266;2022-07-12T03:33:23;2.72;;;1.42;;
23280;SDS011;11809;56.390;-3.266;2022-07-12T03:35:56;2.45;;;1.40;;
23280;SDS011;11809;56.390;-3.266;2022-07-12T03:38:23;1.60;;;1.50;;
23280;SDS011;11809;56.390;-3.266;2022-07-12T03:40:50;1.70;;;1.60;;
23280;SDS011;11809;56.390;-3.266;2022-07-12T03:43:16;1.60;;;1.50;;
23280;SDS011;11809;56.390;-3.266;2022-07-12T03:45:43;1.60;;;1.50;;
23280;SDS011;11809;56.390;-3.266;2022-07-12T03:48:12;1.60;;;1.50;;
23280;SDS011;11809;56.390;-3.266;2022-07-12T03:50:39;1.58;;;1.48;;
23280;SDS011;11809;56.390;-3.266;2022-07-12T03:53:06;1.50;;;1.40;;
23280;SDS011;11809;56.390;-3.266;2022-07-12T03:55:33;1.35;;;1.30;;
23280;SDS011;11809;56.390;-3.266;2022-07-12T03:58:00;1.52;;;1.40;;
23280;SDS011;11809;56.390;-3.266;2022-07-12T04:00:26;1.50;;;1.40;;
23280;SDS011;11809;56.390;-3.266;2022-07-12T04:02:53;1.88;;;1.55;;
23280;SDS011;11809;56.390;-3.266;2022-07-12T04:05:22;1.58;;;1.48;;
23280;SDS011;11809;56.390;-3.266;2022-07-12T04:07:53;2.25;;;1.23;;
23280;SDS011;11809;56.390;-3.266;2022-07-12T04:10:21;1.77;;;1.42;;
23280;SDS011;11809;56.390;-3.266;2022-07-12T04:12:48;1.60;;;1.50;;
23280;SDS011;11809;56.390;-3.266;2022-07-12T04:15:16;1.70;;;1.60;;
23280;SDS011;11809;56.390;-3.266;2022-07-12T04:17:43;1.50;;;1.40;;
23280;SDS011;11809;56.390;-3.266;2022-07-12T04:20:11;1.50;;;1.40;;
23280;SDS011;11809;56.390;-3.266;2022-07-12T04:22:38;2.30;;;1.35;;
23280;SDS011;11809;56.390;-3.266;2022-07-12T04:25:06;1.60;;;1.50;;
23280;SDS011;11809;56.390;-3.266;2022-07-12T04:27:33;1.48;;;1.38;;
23280;SDS011;11809;56.390;-3.266;2022-07-12T04:30:00;1.60;;;1.50;;
23280;SDS011;11809;56.390;-3.266;2022-07-12T04:32:29;2.08;;;1.40;;
23280;SDS011;11809;56.390;-3.266;2022-07-12T04:34:56;1.52;;;1.40;;
23280;SDS011;11809;56.390;-3.266;2022-07-12T04:37:23;1.65;;;1.55;;
23280;SDS011;11809;56.390;-3.266;2022-07-12T04:39:50;1.40;;;1.30;;
23280;SDS011;11809;56.390;-3.266;2022-07-12T04:42:17;1.58;;;1.48;;
23280;SDS011;11809;56.390;-3.266;2022-07-12T04:44:44;1.50;;;1.40;;
23280;SDS011;11809;56.390;-3.266;2022-07-12T04:47:11;1.63;;;1.52;;
23280;SDS011;11809;56.390;-3.266;2022-07-12T04:49:38;1.40;;;1.30;;
23280;SDS011;11809;56.390;-3.266;2022-07-12T04:52:05;1.90;;;1.75;;
23280;SDS011;11809;56.390;-3.266;2022-07-12T04:54:32;1.73;;;1.50;;
23280;SDS011;11809;56.390;-3.266;2022-07-12T04:56:59;3.22;;;2.42;;
23280;SDS011;11809;56.390;-3.266;2022-07-12T04:59:26;4.03;;;2.40;;
23280;SDS011;11809;56.390;-3.266;2022-07-12T05:01:53;6.78;;;2.70;;
23280;SDS011;11809;56.390;-3.266;2022-07-12T05:04:20;3.53;;;2.78;;
23280;SDS011;11809;56.390;-3.266;2022-07-12T05:06:47;37.10;;;25.13;;
23280;SDS011;11809;56.390;-3.266;2022-07-12T05:09:15;17.00;;;10.02;;
23280;SDS011;11809;56.390;-3.266;2022-07-12T05:11:42;9.02;;;4.50;;
23280;SDS011;11809;56.390;-3.266;2022-07-12T05:14:09;5.35;;;3.45;;
23280;SDS011;11809;56.390;-3.266;2022-07-12T05:16:36;36.58;;;4.97;;
23280;SDS011;11809;56.390;-3.266;2022-07-12T05:19:03;17.92;;;4.65;;
23280;SDS011;11809;56.390;-3.266;2022-07-12T05:21:30;11.13;;;5.20;;
23280;SDS011;11809;56.390;-3.266;2022-07-12T05:23:57;10.93;;;5.35;;
23280;SDS011;11809;56.390;-3.266;2022-07-12T05:26:23;13.38;;;4.72;;
23280;SDS011;11809;56.390;-3.266;2022-07-12T05:28:50;8.02;;;4.72;;
23280;SDS011;11809;56.390;-3.266;2022-07-12T05:31:17;8.85;;;4.43;;
23280;SDS011;11809;56.390;-3.266;2022-07-12T05:33:45;7.32;;;4.45;;
23280;SDS011;11809;56.390;-3.266;2022-07-12T05:36:12;9.52;;;4.22;;
23280;SDS011;11809;56.390;-3.266;2022-07-12T05:38:39;5.57;;;3.88;;
23280;SDS011;11809;56.390;-3.266;2022-07-12T05:41:06;7.70;;;4.18;;
23280;SDS011;11809;56.390;-3.266;2022-07-12T05:43:33;5.35;;;3.95;;
23280;SDS011;11809;56.390;-3.266;2022-07-12T05:46:00;5.65;;;3.92;;
23280;SDS011;11809;56.390;-3.266;2022-07-12T05:48:28;7.90;;;4.07;;
23280;SDS011;11809;56.390;-3.266;2022-07-12T05:50:55;4.18;;;3.50;;
23280;SDS011;11809;56.390;-3.266;2022-07-12T05:53:21;5.75;;;3.63;;
23280;SDS011;11809;56.390;-3.266;2022-07-12T05:55:51;11.52;;;3.72;;
23280;SDS011;11809;56.390;-3.266;2022-07-12T05:58:20;6.03;;;3.50;;
23280;SDS011;11809;56.390;-3.266;2022-07-12T06:00:48;4.00;;;3.70;;
23280;SDS011;11809;56.390;-3.266;2022-07-12T06:03:17;3.60;;;3.30;;
23280;SDS011;11809;56.390;-3.266;2022-07-12T06:05:44;4.25;;;3.55;;
23280;SDS011;11809;56.390;-3.266;2022-07-12T06:08:11;6.70;;;3.50;;
23280;SDS011;11809;56.390;-3.266;2022-07-12T06:10:38;5.10;;;3.50;;
23280;SDS011;11809;56.390;-3.266;2022-07-12T06:13:05;7.90;;;3.55;;
23280;SDS011;11809;56.390;-3.266;2022-07-12T06:15:32;4.72;;;3.25;;
23280;SDS011;11809;56.390;-3.266;2022-07-12T06:18:00;5.10;;;3.30;;
23280;SDS011;11809;56.390;-3.266;2022-07-12T06:20:28;10.32;;;3.58;;
23280;SDS011;11809;56.390;-3.266;2022-07-12T06:22:55;10.40;;;4.60;;
23280;SDS011;11809;56.390;-3.266;2022-07-12T06:25:23;7.78;;;3.90;;
23280;SDS011;11809;56.390;-3.266;2022-07-12T06:28:10;15.18;;;4.30;;
23280;SDS011;11809;56.390;-3.266;2022-07-12T06:30:37;14.05;;;4.30;;
23280;SDS011;11809;56.390;-3.266;2022-07-12T06:33:04;10.02;;;4.45;;
23280;SDS011;11809;56.390;-3.266;2022-07-12T06:35:32;14.65;;;4.80;;
23280;SDS011;11809;56.390;-3.266;2022-07-12T06:38:01;8.52;;;3.95;;
23280;SDS011;11809;56.390;-3.266;2022-07-12T06:40:28;6.30;;;4.15;;
23280;SDS011;11809;56.390;-3.266;2022-07-12T06:42:55;9.07;;;3.80;;
23280;SDS011;11809;56.390;-3.266;2022-07-12T06:45:22;8.57;;;3.78;;
23280;SDS011;11809;56.390;-3.266;2022-07-12T06:47:50;5.10;;;3.67;;
23280;SDS011;11809;56.390;-3.266;2022-07-12T06:50:18;6.93;;;3.33;;
23280;SDS011;11809;56.390;-3.266;2022-07-12T06:52:45;8.45;;;3.67;;
23280;SDS011;11809;56.390;-3.266;2022-07-12T06:55:12;4.07;;;3.33;;
23280;SDS011;11809;56.390;-3.266;2022-07-12T06:57:39;4.85;;;3.40;;
23280;SDS011;11809;56.390;-3.266;2022-07-12T07:00:06;8.18;;;3.53;;
23280;SDS011;11809;56.390;-3.266;2022-07-12T07:02:33;3.65;;;3.33;;
23280;SDS011;11809;56.390;-3.266;2022-07-12T07:05:01;5.88;;;3.65;;
23280;SDS011;11809;56.390;-3.266;2022-07-12T07:07:28;4.25;;;3.85;;
23280;SDS011;11809;56.390;-3.266;2022-07-12T07:09:54;4.40;;;3.42;;
23280;SDS011;11809;56.390;-3.266;2022-07-12T07:12:21;5.57;;;3.70;;
23280;SDS011;11809;56.390;-3.266;2022-07-12T07:14:49;7.85;;;3.28;;
23280;SDS011;11809;56.390;-3.266;2022-07-12T07:17:16;4.97;;;3.90;;
23280;SDS011;11809;56.390;-3.266;2022-07-12T07:19:44;5.68;;;3.63;;
23280;SDS011;11809;56.390;-3.266;2022-07-12T07:22:12;6.55;;;3.33;;
23280;SDS011;11809;56.390;-3.266;2022-07-12T07:24:39;5.38;;;3.70;;
23280;SDS011;11809;56.390;-3.266;2022-07-12T07:27:07;4.00;;;3.25;;
23280;SDS011;11809;56.390;-3.266;2022-07-12T07:29:34;4.28;;;3.38;;
23280;SDS011;11809;56.390;-3.266;2022-07-12T07:32:20;3.53;;;3.20;;
23280;SDS011;11809;56.390;-3.266;2022-07-12T07:34:47;3.45;;;3.15;;
23280;SDS011;11809;56.390;-3.266;2022-07-12T07:37:14;4.53;;;2.70;;
23280;SDS011;11809;56.390;-3.266;2022-07-12T07:39:41;5.63;;;3.13;;
23280;SDS011;11809;56.390;-3.266;2022-07-12T07:42:09;3.28;;;2.95;;
23280;SDS011;11809;56.390;-3.266;2022-07-12T07:44:36;3.88;;;2.80;;
23280;SDS011;11809;56.390;-3.266;2022-07-12T07:47:23;7.25;;;2.70;;
23280;SDS011;11809;56.390;-3.266;2022-07-12T07:49:50;2.83;;;2.60;;
23280;SDS011;11809;56.390;-3.266;2022-07-12T07:52:21;5.55;;;2.45;;
23280;SDS011;11809;56.390;-3.266;2022-07-12T07:54:48;4.32;;;2.50;;
23280;SDS011;11809;56.390;-3.266;2022-07-12T07:57:15;2.60;;;2.40;;
23280;SDS011;11809;56.390;-3.266;2022-07-12T07:59:42;5.38;;;2.22;;
23280;SDS011;11809;56.390;-3.266;2022-07-12T08:02:10;5.70;;;2.20;;
23280;SDS011;11809;56.390;-3.266;2022-07-12T08:04:38;2.95;;;2.08;;
23280;SDS011;11809;56.390;-3.266;2022-07-12T08:07:05;19.77;;;2.35;;
23280;SDS011;11809;56.390;-3.266;2022-07-12T08:09:32;6.80;;;2.10;;
23280;SDS011;11809;56.390;-3.266;2022-07-12T08:11:59;5.63;;;2.25;;
23280;SDS011;11809;56.390;-3.266;2022-07-12T08:14:26;5.22;;;1.98;;
23280;SDS011;11809;56.390;-3.266;2022-07-12T08:16:53;6.80;;;2.25;;
23280;SDS011;11809;56.390;-3.266;2022-07-12T08:19:20;4.38;;;1.83;;
23280;SDS011;11809;56.390;-3.266;2022-07-12T08:21:48;7.25;;;2.05;;
23280;SDS011;11809;56.390;-3.266;2022-07-12T08:24:14;4.03;;;1.83;;
23280;SDS011;11809;56.390;-3.266;2022-07-12T08:26:42;3.95;;;1.75;;
23280;SDS011;11809;56.390;-3.266;2022-07-12T08:29:09;2.22;;;1.60;;
23280;SDS011;11809;56.390;-3.266;2022-07-12T08:31:36;3.75;;;1.75;;
23280;SDS011;11809;56.390;-3.266;2022-07-12T08:34:03;4.88;;;1.73;;
23280;SDS011;11809;56.390;-3.266;2022-07-12T08:36:31;3.30;;;1.58;;
23280;SDS011;11809;56.390;-3.266;2022-07-12T08:38:59;3.90;;;1.67;;
23280;SDS011;11809;56.390;-3.266;2022-07-12T08:41:27;2.70;;;1.60;;
23280;SDS011;11809;56.390;-3.266;2022-07-12T08:43:54;1.65;;;1.50;;
23280;SDS011;11809;56.390;-3.266;2022-07-12T08:46:21;3.17;;;1.40;;
23280;SDS011;11809;56.390;-3.266;2022-07-12T08:48:48;2.97;;;1.63;;
23280;SDS011;11809;56.390;-3.266;2022-07-12T08:51:19;4.53;;;1.67;;
23280;SDS011;11809;56.390;-3.266;2022-07-12T08:53:47;2.78;;;1.50;;
23280;SDS011;11809;56.390;-3.266;2022-07-12T08:56:36;4.10;;;1.63;;
23280;SDS011;11809;56.390;-3.266;2022-07-12T09:04:19;2.35;;;1.70;;
23280;SDS011;11809;56.390;-3.266;2022-07-12T09:06:48;4.60;;;1.20;;
23280;SDS011;11809;56.390;-3.266;2022-07-12T09:09:25;6.22;;;1.40;;
23280;SDS011;11809;56.390;-3.266;2022-07-12T09:12:00;3.03;;;1.40;;
23280;SDS011;11809;56.390;-3.266;2022-07-12T09:14:27;9.18;;;1.70;;
23280;SDS011;11809;56.390;-3.266;2022-07-12T09:17:02;5.47;;;1.80;;
23280;SDS011;11809;56.390;-3.266;2022-07-12T09:19:39;6.22;;;1.50;;
23280;SDS011;11809;56.390;-3.266;2022-07-12T09:22:15;14.10;;;1.65;;
23280;SDS011;11809;56.390;-3.266;2022-07-12T09:24:43;11.85;;;1.65;;
23280;SDS011;11809;56.390;-3.266;2022-07-12T09:27:10;6.30;;;1.23;;
23280;SDS011;11809;56.390;-3.266;2022-07-12T09:29:47;3.42;;;0.98;;
23280;SDS011;11809;56.390;-3.266;2022-07-12T09:32:19;1.77;;;0.82;;
23280;SDS011;11809;56.390;-3.266;2022-07-12T09:35:04;3.95;;;1.08;;
23280;SDS011;11809;56.390;-3.266;2022-07-12T09:37:50;4.68;;;0.90;;
23280;SDS011;11809;56.390;-3.266;2022-07-12T09:40:17;6.25;;;1.00;;
23280;SDS011;11809;56.390;-3.266;2022-07-12T09:42:46;5.88;;;1.00;;
23280;SDS011;11809;56.390;-3.266;2022-07-12T09:45:16;3.53;;;0.80;;
23280;SDS011;11809;56.390;-3.266;2022-07-12T09:47:45;1.77;;;0.90;;
23280;SDS011;11809;56.390;-3.266;2022-07-12T09:50:13;0.80;;;0.80;;
23280;SDS011;11809;56.390;-3.266;2022-07-12T09:52:40;0.73;;;0.70;;
23280;SDS011;11809;56.390;-3.266;2022-07-12T09:55:11;1.88;;;0.80;;
23280;SDS011;11809;56.390;-3.266;2022-07-12T09:57:44;2.42;;;0.60;;
23280;SDS011;11809;56.390;-3.266;2022-07-12T10:00:13;2.35;;;0.60;;
23280;SDS011;11809;56.390;-3.266;2022-07-12T10:02:40;3.60;;;0.88;;
23280;SDS011;11809;56.390;-3.266;2022-07-12T10:05:08;2.97;;;0.70;;
23280;SDS011;11809;56.390;-3.266;2022-07-12T10:07:39;8.85;;;1.10;;
23280;SDS011;11809;56.390;-3.266;2022-07-12T10:10:07;2.88;;;0.73;;
23280;SDS011;11809;56.390;-3.266;2022-07-12T10:12:36;18.48;;;1.00;;
23280;SDS011;11809;56.390;-3.266;2022-07-12T10:15:04;5.40;;;0.80;;
23280;SDS011;11809;56.390;-3.266;2022-07-12T10:17:42;6.68;;;0.50;;
23280;SDS011;11809;56.390;-3.266;2022-07-12T10:20:23;2.58;;;0.50;;
23280;SDS011;11809;56.390;-3.266;2022-07-12T10:22:54;4.05;;;0.60;;
23280;SDS011;11809;56.390;-3.266;2022-07-12T10:25:44;0.88;;;0.50;;
23280;SDS011;11809;56.390;-3.266;2022-07-12T10:28:11;0.95;;;0.52;;
23280;SDS011;11809;56.390;-3.266;2022-07-12T10:30:46;0.30;;;0.30;;
23280;SDS011;11809;56.390;-3.266;2022-07-12T10:33:20;0.63;;;0.40;;
23280;SDS011;11809;56.390;-3.266;2022-07-12T10:38:29;0.70;;;0.50;;
23280;SDS011;11809;56.390;-3.266;2022-07-12T10:40:56;0.45;;;0.45;;
23280;SDS011;11809;56.390;-3.266;2022-07-12T10:43:29;2.42;;;0.52;;
23280;SDS011;11809;56.390;-3.266;2022-07-12T10:46:18;3.03;;;0.47;;
23280;SDS011;11809;56.390;-3.266;2022-07-12T10:48:48;7.30;;;0.60;;
23280;SDS011;11809;56.390;-3.266;2022-07-12T10:51:16;6.30;;;0.52;;
23280;SDS011;11809;56.390;-3.266;2022-07-12T10:53:46;2.42;;;0.55;;
23280;SDS011;11809;56.390;-3.266;2022-07-12T10:56:18;2.05;;;0.43;;
23280;SDS011;11809;56.390;-3.266;2022-07-12T10:58:58;1.55;;;0.30;;
23280;SDS011;11809;56.390;-3.266;2022-07-12T11:01:30;6.78;;;0.55;;
23280;SDS011;11809;56.390;-3.266;2022-07-12T11:04:08;1.02;;;0.20;;
23280;SDS011;11809;56.390;-3.266;2022-07-12T11:06:40;7.97;;;0.40;;
23280;SDS011;11809;56.390;-3.266;2022-07-12T11:09:09;5.90;;;0.35;;
23280;SDS011;11809;56.390;-3.266;2022-07-12T11:11:41;1.92;;;0.38;;
23280;SDS011;11809;56.390;-3.266;2022-07-12T11:14:11;1.85;;;0.32;;
23280;SDS011;11809;56.390;-3.266;2022-07-12T11:16:46;1.45;;;0.20;;
23280;SDS011;11809;56.390;-3.266;2022-07-12T11:19:14;1.88;;;0.40;;
23280;SDS011;11809;56.390;-3.266;2022-07-12T11:21:43;0.85;;;0.40;;
23280;SDS011;11809;56.390;-3.266;2022-07-12T11:24:18;3.22;;;0.30;;
23280;SDS011;11809;56.390;-3.266;2022-07-12T11:26:47;4.50;;;0.30;;
23280;SDS011;11809;56.390;-3.266;2022-07-12T11:29:15;1.90;;;0.43;;
23280;SDS011;11809;56.390;-3.266;2022-07-12T11:31:43;3.40;;;0.30;;
23280;SDS011;11809;56.390;-3.266;2022-07-12T11:34:23;2.08;;;0.30;;
23280;SDS011;11809;56.390;-3.266;2022-07-12T11:36:59;1.17;;;0.20;;
23280;SDS011;11809;56.390;-3.266;2022-07-12T11:42:01;2.75;;;0.22;;
23280;SDS011;11809;56.390;-3.266;2022-07-12T11:44:48;1.27;;;0.20;;
23280;SDS011;11809;56.390;-3.266;2022-07-12T11:47:17;3.55;;;0.20;;
23280;SDS011;11809;56.390;-3.266;2022-07-12T11:49:46;2.40;;;0.20;;
23280;SDS011;11809;56.390;-3.266;2022-07-12T11:52:16;0.50;;;0.20;;
23280;SDS011;11809;56.390;-3.266;2022-07-12T11:54:44;3.13;;;0.30;;
23280;SDS011;11809;56.390;-3.266;2022-07-12T11:57:13;6.95;;;0.63;;
23280;SDS011;11809;56.390;-3.266;2022-07-12T11:59:40;3.80;;;0.57;;
23280;SDS011;11809;56.390;-3.266;2022-07-12T12:02:10;5.00;;;0.47;;
23280;SDS011;11809;56.390;-3.266;2022-07-12T12:07:11;8.98;;;0.40;;
23280;SDS011;11809;56.390;-3.266;2022-07-12T12:15:21;8.15;;;0.40;;
23280;SDS011;11809;56.390;-3.266;2022-07-12T12:20:18;4.18;;;0.40;;
23280;SDS011;11809;56.390;-3.266;2022-07-12T12:22:54;2.65;;;0.40;;
23280;SDS011;11809;56.390;-3.266;2022-07-12T12:25:23;1.65;;;0.40;;
23280;SDS011;11809;56.390;-3.266;2022-07-12T12:31:16;2.72;;;0.70;;
23280;SDS011;11809;56.390;-3.266;2022-07-12T12:33:36;4.88;;;0.80;;
23280;SDS011;11809;56.390;-3.266;2022-07-12T12:36:14;4.75;;;0.77;;
23280;SDS011;11809;56.390;-3.266;2022-07-12T12:38:45;0.60;;;0.60;;
23280;SDS011;11809;56.390;-3.266;2022-07-12T12:41:15;11.88;;;0.80;;
23280;SDS011;11809;56.390;-3.266;2022-07-12T12:43:43;4.15;;;0.60;;
23280;SDS011;11809;56.390;-3.266;2022-07-12T12:46:10;2.28;;;0.50;;
23280;SDS011;11809;56.390;-3.266;2022-07-12T12:48:41;0.70;;;0.45;;
23280;SDS011;11809;56.390;-3.266;2022-07-12T12:51:13;7.93;;;0.70;;
23280;SDS011;11809;56.390;-3.266;2022-07-12T12:53:41;2.72;;;0.40;;
23280;SDS011;11809;56.390;-3.266;2022-07-12T12:56:10;4.70;;;0.77;;
23280;SDS011;11809;56.390;-3.266;2022-07-12T12:58:39;24.00;;;1.13;;
23280;SDS011;11809;56.390;-3.266;2022-07-12T13:01:07;6.55;;;0.80;;
23280;SDS011;11809;56.390;-3.266;2022-07-12T13:03:36;4.82;;;0.50;;
23280;SDS011;11809;56.390;-3.266;2022-07-12T13:06:03;2.20;;;0.73;;
23280;SDS011;11809;56.390;-3.266;2022-07-12T13:08:31;1.52;;;0.60;;
23280;SDS011;11809;56.390;-3.266;2022-07-12T13:10:59;6.18;;;0.80;;
23280;SDS011;11809;56.390;-3.266;2022-07-12T13:13:49;3.35;;;1.02;;
23280;SDS011;11809;56.390;-3.266;2022-07-12T13:16:16;1.35;;;0.50;;
23280;SDS011;11809;56.390;-3.266;2022-07-12T13:18:43;3.78;;;0.50;;
23280;SDS011;11809;56.390;-3.266;2022-07-12T13:21:10;5.22;;;0.60;;
23280;SDS011;11809;56.390;-3.266;2022-07-12T13:23:37;3.33;;;0.75;;
23280;SDS011;11809;56.390;-3.266;2022-07-12T13:26:04;1.02;;;0.50;;
23280;SDS011;11809;56.390;-3.266;2022-07-12T13:28:32;2.95;;;0.55;;
23280;SDS011;11809;56.390;-3.266;2022-07-12T13:31:00;8.88;;;0.60;;
23280;SDS011;11809;56.390;-3.266;2022-07-12T13:33:28;5.65;;;0.40;;
23280;SDS011;11809;56.390;-3.266;2022-07-12T13:35:56;5.30;;;0.40;;
23280;SDS011;11809;56.390;-3.266;2022-07-12T13:38:24;1.55;;;0.40;;
23280;SDS011;11809;56.390;-3.266;2022-07-12T13:40:53;2.95;;;0.55;;
23280;SDS011;11809;56.390;-3.266;2022-07-12T13:43:20;6.70;;;0.60;;
23280;SDS011;11809;56.390;-3.266;2022-07-12T13:45:49;6.03;;;0.60;;
23280;SDS011;11809;56.390;-3.266;2022-07-12T13:48:17;5.30;;;0.60;;
23280;SDS011;11809;56.390;-3.266;2022-07-12T13:50:45;5.38;;;0.60;;
23280;SDS011;11809;56.390;-3.266;2022-07-12T13:53:33;4.07;;;0.93;;
23280;SDS011;11809;56.390;-3.266;2022-07-12T13:56:00;1.65;;;0.50;;
23280;SDS011;11809;56.390;-3.266;2022-07-12T13:58:27;7.45;;;0.82;;
23280;SDS011;11809;56.390;-3.266;2022-07-12T14:00:54;19.92;;;1.25;;
23280;SDS011;11809;56.390;-3.266;2022-07-12T14:03:22;14.77;;;1.10;;
23280;SDS011;11809;56.390;-3.266;2022-07-12T14:05:49;5.18;;;0.75;;
23280;SDS011;11809;56.390;-3.266;2022-07-12T14:08:20;2.10;;;0.50;;
23280;SDS011;11809;56.390;-3.266;2022-07-12T14:10:47;7.57;;;0.70;;
23280;SDS011;11809;56.390;-3.266;2022-07-12T14:13:14;11.80;;;0.93;;
23280;SDS011;11809;56.390;-3.266;2022-07-12T14:15:41;3.05;;;0.63;;
23280;SDS011;11809;56.390;-3.266;2022-07-12T14:18:10;9.98;;;1.00;;
23280;SDS011;11809;56.390;-3.266;2022-07-12T14:20:37;4.28;;;0.70;;
23280;SDS011;11809;56.390;-3.266;2022-07-12T14:23:04;5.30;;;0.50;;
23280;SDS011;11809;56.390;-3.266;2022-07-12T14:25:35;3.75;;;0.60;;
23280;SDS011;11809;56.390;-3.266;2022-07-12T14:28:02;8.55;;;0.80;;
23280;SDS011;11809;56.390;-3.266;2022-07-12T14:30:29;11.52;;;1.10;;
23280;SDS011;11809;56.390;-3.266;2022-07-12T14:32:56;5.63;;;0.90;;
23280;SDS011;11809;56.390;-3.266;2022-07-12T14:35:23;3.97;;;0.57;;
23280;SDS011;11809;56.390;-3.266;2022-07-12T14:37:50;4.43;;;0.50;;
23280;SDS011;11809;56.390;-3.266;2022-07-12T14:40:17;3.25;;;0.60;;
23280;SDS011;11809;56.390;-3.266;2022-07-12T14:42:45;3.90;;;0.60;;
23280;SDS011;11809;56.390;-3.266;2022-07-12T14:45:12;2.40;;;0.57;;
23280;SDS011;11809;56.390;-3.266;2022-07-12T14:47:40;4.25;;;0.98;;
23280;SDS011;11809;56.390;-3.266;2022-07-12T14:50:07;6.45;;;1.05;;
23280;SDS011;11809;56.390;-3.266;2022-07-12T14:52:34;3.55;;;0.90;;
23280;SDS011;11809;56.390;-3.266;2022-07-12T14:55:01;2.92;;;0.80;;
23280;SDS011;11809;56.390;-3.266;2022-07-12T14:57:29;2.72;;;0.60;;
23280;SDS011;11809;56.390;-3.266;2022-07-12T14:59:56;3.22;;;0.95;;
23280;SDS011;11809;56.390;-3.266;2022-07-12T15:02:23;2.40;;;0.60;;
23280;SDS011;11809;56.390;-3.266;2022-07-12T15:04:50;6.95;;;0.80;;
23280;SDS011;11809;56.390;-3.266;2022-07-12T15:07:17;6.13;;;0.82;;